Ocean Outback — 9V8072 — position and weather

sailwx.info

Track history (hours):
 
Tides and Currents Weather Stations Pressure Air Temp Water Temp Dewpoint Dewpoint Depression Visibility Wind Speed Wind Dir Waves Ship Positions

Ocean Outback

Last reported at 2015-May-19 20:08 UTC. Time now 2015-May-28 16:10 UTC.
Position N 01°16' E 104°10'.
Warning: this ship's position is 8 days out of date.

Length 136 m; draft 7.2 m.

Type: Ship. MMSI: 563745000.

Date/timePositionNaut miles runAvg speedWind from/ knotsBaromVisibWave heightAir tempDewpointWater temp
2015-May-19 20:08N 01°16' E 104°10'1016.8
2015-May-19 19:32N 01°15' E 104°00'8 8.4
2015-May-19 18:33N 01°15' E 103°52'0 0.1
2015-May-19 17:33N 01°15' E 103°52'0 0.0
2015-May-19 16:33N 01°15' E 103°52'0 0.0
2015-May-19 15:30N 01°15' E 103°52'0 0.1
2015-May-19 14:33N 01°15' E 103°52'0 0.0
2015-May-19 13:30N 01°15' E 103°52'0 0.0
2015-May-19 12:33N 01°15' E 103°52'0 0.0
2015-May-19 11:33N 01°15' E 103°52'0 0.1
2015-May-19 10:27N 01°15' E 103°52'0 0.0
2015-May-19 09:18N 01°15' E 103°52'0 0.0
2015-May-19 08:33N 01°15' E 103°52'0 0.0
2015-May-19 07:30N 01°15' E 103°52'1 0.6
2015-May-19 06:34N 01°15' E 103°52'4 4.3
2015-May-19 05:32N 01°14' E 103°56'9 9.4
2015-May-19 04:33N 01°16' E 104°05'9 9.1
2015-May-19 03:32N 01°17' E 104°14'  
2015-May-14 04:29S 05°38' E 107°12'14214.0
2015-May-13 18:22S 05°36' E 109°35'  
Track history (hours):
 
Tides and Currents Weather Stations Pressure Air Temp Water Temp Dewpoint Dewpoint Depression Visibility Wind Speed Wind Dir Waves Ship Positions

Ocean Outback

Last reported at 2015-May-19 20:08 UTC. Time now 2015-May-28 16:10 UTC.
Position N 01°16' E 104°10'.
Warning: this ship's position is 8 days out of date.

Length 136 m; draft 7.2 m.

Type: Ship. MMSI: 563745000.

Date/timePositionNaut miles runAvg speedWind from/ knotsBaromVisibWave heightAir tempDewpointWater temp
2015-May-19 20:08N 01°16' E 104°10'1016.8
2015-May-19 19:32N 01°15' E 104°00'8 8.4
2015-May-19 18:33N 01°15' E 103°52'0 0.1
2015-May-19 17:33N 01°15' E 103°52'0 0.0
2015-May-19 16:33N 01°15' E 103°52'0 0.0
2015-May-19 15:30N 01°15' E 103°52'0 0.1
2015-May-19 14:33N 01°15' E 103°52'0 0.0
2015-May-19 13:30N 01°15' E 103°52'0 0.0
2015-May-19 12:33N 01°15' E 103°52'0 0.0
2015-May-19 11:33N 01°15' E 103°52'0 0.1
2015-May-19 10:27N 01°15' E 103°52'0 0.0
2015-May-19 09:18N 01°15' E 103°52'0 0.0
2015-May-19 08:33N 01°15' E 103°52'0 0.0
2015-May-19 07:30N 01°15' E 103°52'1 0.6
2015-May-19 06:34N 01°15' E 103°52'4 4.3
2015-May-19 05:32N 01°14' E 103°56'9 9.4
2015-May-19 04:33N 01°16' E 104°05'9 9.1
2015-May-19 03:32N 01°17' E 104°14'  
2015-May-14 04:29S 05°38' E 107°12'14214.0
2015-May-13 18:22S 05°36' E 109°35'  

Dump ship's entire track history